Virgie, Kentucky
Current Conditions -  °F | °C
As of 11:15 AM on Thursday 23 Oct 2014 (Local Time) from KPBX Reporting Station
Overcast Overcast  
Wind Chill: 46°   Ceiling: 3400
Heat Index: 48°   Visibility: 10mi
Dew Point: 41°   Wind: 5mph
Humidity: 77%   Direction: 20°NNE
Pressure: 30.23"   Gusts: NA
Location:  37.33°N, 82.58°W
Report Text: KPBX 231515Z AUTO 02004KT 10SM SCT018 OVC034 09/05 A3023 RMK AO2 T00900052
Loading
Personal Weather Stations






























Interactive Weather Map
Tropical Storm Tracking
New forecast layout! Learn more

10-Day Weather Forecast

Advertisements
Track Severe Weather on mobile